sensor_id;sensor_type;location;lat;lon;timestamp;temperature;humidity
20700;DHT22;10511;51.232;9.420;2023-08-24T00:00:24;19.50;99.90
20700;DHT22;10511;51.232;9.420;2023-08-24T00:02:51;19.60;99.90
20700;DHT22;10511;51.232;9.420;2023-08-24T00:05:18;19.60;99.90
20700;DHT22;10511;51.232;9.420;2023-08-24T00:07:45;19.60;99.90
20700;DHT22;10511;51.232;9.420;2023-08-24T00:10:15;19.60;99.90
20700;DHT22;10511;51.232;9.420;2023-08-24T00:12:42;19.60;99.90
20700;DHT22;10511;51.232;9.420;2023-08-24T00:15:09;19.60;99.90
20700;DHT22;10511;51.232;9.420;2023-08-24T00:17:37;19.50;99.90
20700;DHT22;10511;51.232;9.420;2023-08-24T00:20:06;19.50;99.90
20700;DHT22;10511;51.232;9.420;2023-08-24T00:22:36;19.70;99.90
20700;DHT22;10511;51.232;9.420;2023-08-24T00:25:04;19.60;99.90
20700;DHT22;10511;51.232;9.420;2023-08-24T00:27:33;19.50;99.90
20700;DHT22;10511;51.232;9.420;2023-08-24T00:30:01;19.40;99.90
20700;DHT22;10511;51.232;9.420;2023-08-24T00:32:28;19.20;99.90
20700;DHT22;10511;51.232;9.420;2023-08-24T00:34:56;19.00;99.90
20700;DHT22;10511;51.232;9.420;2023-08-24T00:37:23;18.80;99.90
20700;DHT22;10511;51.232;9.420;2023-08-24T00:39:50;18.60;99.90
20700;DHT22;10511;51.232;9.420;2023-08-24T00:42:16;18.40;99.90
20700;DHT22;10511;51.232;9.420;2023-08-24T00:44:45;18.20;99.90
20700;DHT22;10511;51.232;9.420;2023-08-24T00:47:12;18.00;99.90
20700;DHT22;10511;51.232;9.420;2023-08-24T00:49:39;17.80;99.90
20700;DHT22;10511;51.232;9.420;2023-08-24T00:52:06;17.70;99.90
20700;DHT22;10511;51.232;9.420;2023-08-24T00:54:34;17.60;99.90
20700;DHT22;10511;51.232;9.420;2023-08-24T00:57:02;17.50;99.90
20700;DHT22;10511;51.232;9.420;2023-08-24T00:59:29;17.40;99.90
20700;DHT22;10511;51.232;9.420;2023-08-24T01:01:59;17.50;99.90
20700;DHT22;10511;51.232;9.420;2023-08-24T01:04:26;17.60;99.90
20700;DHT22;10511;51.232;9.420;2023-08-24T01:06:53;17.70;99.90
20700;DHT22;10511;51.232;9.420;2023-08-24T01:09:20;17.70;99.90
20700;DHT22;10511;51.232;9.420;2023-08-24T01:12:01;17.80;99.90
20700;DHT22;10511;51.232;9.420;2023-08-24T01:14:39;18.00;99.90
20700;DHT22;10511;51.232;9.420;2023-08-24T01:17:10;18.10;99.90
20700;DHT22;10511;51.232;9.420;2023-08-24T01:19:42;18.30;99.90
20700;DHT22;10511;51.232;9.420;2023-08-24T01:22:22;18.40;99.90
20700;DHT22;10511;51.232;9.420;2023-08-24T01:24:55;18.50;99.90
20700;DHT22;10511;51.232;9.420;2023-08-24T01:27:29;18.50;99.90
20700;DHT22;10511;51.232;9.420;2023-08-24T01:30:00;18.40;99.90
20700;DHT22;10511;51.232;9.420;2023-08-24T01:32:30;18.30;99.90
20700;DHT22;10511;51.232;9.420;2023-08-24T01:34:57;18.30;99.90
20700;DHT22;10511;51.232;9.420;2023-08-24T01:37:25;18.30;99.90
20700;DHT22;10511;51.232;9.420;2023-08-24T01:39:58;18.10;99.90
20700;DHT22;10511;51.232;9.420;2023-08-24T01:42:31;18.20;99.90
20700;DHT22;10511;51.232;9.420;2023-08-24T01:45:03;18.30;99.90
20700;DHT22;10511;51.232;9.420;2023-08-24T01:47:33;18.30;99.90
20700;DHT22;10511;51.232;9.420;2023-08-24T01:50:03;18.50;99.90
20700;DHT22;10511;51.232;9.420;2023-08-24T01:52:30;18.50;99.90
20700;DHT22;10511;51.232;9.420;2023-08-24T01:54:58;18.60;99.90
20700;DHT22;10511;51.232;9.420;2023-08-24T01:57:25;18.50;99.90
20700;DHT22;10511;51.232;9.420;2023-08-24T01:59:54;18.50;99.90
20700;DHT22;10511;51.232;9.420;2023-08-24T02:02:21;18.20;99.90
20700;DHT22;10511;51.232;9.420;2023-08-24T02:04:48;18.00;99.90
20700;DHT22;10511;51.232;9.420;2023-08-24T02:07:16;18.00;99.90
20700;DHT22;10511;51.232;9.420;2023-08-24T02:09:43;18.10;99.90
20700;DHT22;10511;51.232;9.420;2023-08-24T02:12:10;18.20;99.90
20700;DHT22;10511;51.232;9.420;2023-08-24T02:14:36;18.20;99.90
20700;DHT22;10511;51.232;9.420;2023-08-24T02:17:05;18.30;99.90
20700;DHT22;10511;51.232;9.420;2023-08-24T02:19:32;18.20;99.90
20700;DHT22;10511;51.232;9.420;2023-08-24T02:21:59;18.10;99.90
20700;DHT22;10511;51.232;9.420;2023-08-24T02:24:26;17.90;99.90
20700;DHT22;10511;51.232;9.420;2023-08-24T02:26:53;17.90;99.90
20700;DHT22;10511;51.232;9.420;2023-08-24T02:29:19;17.90;99.90
20700;DHT22;10511;51.232;9.420;2023-08-24T02:31:49;17.90;99.90
20700;DHT22;10511;51.232;9.420;2023-08-24T02:34:17;17.80;99.90
20700;DHT22;10511;51.232;9.420;2023-08-24T02:36:45;17.90;99.90
20700;DHT22;10511;51.232;9.420;2023-08-24T02:39:12;17.90;99.90
20700;DHT22;10511;51.232;9.420;2023-08-24T02:41:39;17.90;99.90
20700;DHT22;10511;51.232;9.420;2023-08-24T02:44:06;17.70;99.90
20700;DHT22;10511;51.232;9.420;2023-08-24T02:46:33;17.50;99.90
20700;DHT22;10511;51.232;9.420;2023-08-24T02:49:00;17.30;99.90
20700;DHT22;10511;51.232;9.420;2023-08-24T02:51:28;17.40;99.90
20700;DHT22;10511;51.232;9.420;2023-08-24T02:53:56;17.60;99.90
20700;DHT22;10511;51.232;9.420;2023-08-24T02:56:23;17.70;99.90
20700;DHT22;10511;51.232;9.420;2023-08-24T02:58:50;17.70;99.90
20700;DHT22;10511;51.232;9.420;2023-08-24T03:01:18;17.80;99.90
20700;DHT22;10511;51.232;9.420;2023-08-24T03:03:45;17.90;99.90
20700;DHT22;10511;51.232;9.420;2023-08-24T03:06:12;17.90;99.90
20700;DHT22;10511;51.232;9.420;2023-08-24T03:08:40;17.90;99.90
20700;DHT22;10511;51.232;9.420;2023-08-24T03:11:07;17.90;99.90
20700;DHT22;10511;51.232;9.420;2023-08-24T03:13:36;17.90;99.90
20700;DHT22;10511;51.232;9.420;2023-08-24T03:16:04;17.90;99.90
20700;DHT22;10511;51.232;9.420;2023-08-24T03:18:31;17.80;99.90
20700;DHT22;10511;51.232;9.420;2023-08-24T03:20:58;17.60;99.90
20700;DHT22;10511;51.232;9.420;2023-08-24T03:23:25;17.60;99.90
20700;DHT22;10511;51.232;9.420;2023-08-24T03:25:55;17.70;99.90
20700;DHT22;10511;51.232;9.420;2023-08-24T03:28:22;17.70;99.90
20700;DHT22;10511;51.232;9.420;2023-08-24T03:30:51;17.70;99.90
20700;DHT22;10511;51.232;9.420;2023-08-24T03:33:20;17.80;99.90
20700;DHT22;10511;51.232;9.420;2023-08-24T03:35:47;17.90;99.90
20700;DHT22;10511;51.232;9.420;2023-08-24T03:38:14;17.90;99.90
20700;DHT22;10511;51.232;9.420;2023-08-24T03:40:41;17.90;99.90
20700;DHT22;10511;51.232;9.420;2023-08-24T03:43:09;17.90;99.90
20700;DHT22;10511;51.232;9.420;2023-08-24T03:45:36;17.90;99.90
20700;DHT22;10511;51.232;9.420;2023-08-24T03:48:03;18.00;99.90
20700;DHT22;10511;51.232;9.420;2023-08-24T03:50:30;18.00;99.90
20700;DHT22;10511;51.232;9.420;2023-08-24T03:52:57;18.10;99.90
20700;DHT22;10511;51.232;9.420;2023-08-24T03:55:24;18.00;99.90
20700;DHT22;10511;51.232;9.420;2023-08-24T03:57:51;18.10;99.90
20700;DHT22;10511;51.232;9.420;2023-08-24T04:00:21;18.10;99.90
20700;DHT22;10511;51.232;9.420;2023-08-24T04:02:49;18.00;99.90
20700;DHT22;10511;51.232;9.420;2023-08-24T04:05:16;17.50;99.90
20700;DHT22;10511;51.232;9.420;2023-08-24T04:07:43;17.10;99.90
20700;DHT22;10511;51.232;9.420;2023-08-24T04:10:11;16.90;99.90
20700;DHT22;10511;51.232;9.420;2023-08-24T04:12:38;16.80;99.90
20700;DHT22;10511;51.232;9.420;2023-08-24T04:15:06;16.70;99.90
20700;DHT22;10511;51.232;9.420;2023-08-24T04:17:34;16.70;99.90
20700;DHT22;10511;51.232;9.420;2023-08-24T04:20:01;16.80;99.90
20700;DHT22;10511;51.232;9.420;2023-08-24T04:22:32;16.90;99.90
20700;DHT22;10511;51.232;9.420;2023-08-24T04:24:59;17.10;99.90
20700;DHT22;10511;51.232;9.420;2023-08-24T04:27:26;17.30;99.90
20700;DHT22;10511;51.232;9.420;2023-08-24T04:29:56;17.50;99.90
20700;DHT22;10511;51.232;9.420;2023-08-24T04:32:23;17.60;99.90
20700;DHT22;10511;51.232;9.420;2023-08-24T04:34:52;17.60;99.90
20700;DHT22;10511;51.232;9.420;2023-08-24T04:37:19;17.60;99.90
20700;DHT22;10511;51.232;9.420;2023-08-24T04:39:46;17.60;99.90
20700;DHT22;10511;51.232;9.420;2023-08-24T04:42:12;17.40;99.90
20700;DHT22;10511;51.232;9.420;2023-08-24T04:44:40;17.00;99.90
20700;DHT22;10511;51.232;9.420;2023-08-24T04:47:07;16.60;99.90
20700;DHT22;10511;51.232;9.420;2023-08-24T04:49:35;16.70;99.90
20700;DHT22;10511;51.232;9.420;2023-08-24T04:52:04;16.90;99.90
20700;DHT22;10511;51.232;9.420;2023-08-24T04:54:31;17.00;99.90
20700;DHT22;10511;51.232;9.420;2023-08-24T04:56:58;16.80;99.90
20700;DHT22;10511;51.232;9.420;2023-08-24T04:59:25;16.60;99.90
20700;DHT22;10511;51.232;9.420;2023-08-24T05:01:51;16.40;99.90
20700;DHT22;10511;51.232;9.420;2023-08-24T05:04:18;16.20;99.90
20700;DHT22;10511;51.232;9.420;2023-08-24T05:06:45;16.30;99.90
20700;DHT22;10511;51.232;9.420;2023-08-24T05:09:14;16.40;99.90
20700;DHT22;10511;51.232;9.420;2023-08-24T05:11:40;16.60;99.90
20700;DHT22;10511;51.232;9.420;2023-08-24T05:14:07;16.80;99.90
20700;DHT22;10511;51.232;9.420;2023-08-24T05:16:34;17.00;99.90
20700;DHT22;10511;51.232;9.420;2023-08-24T05:19:01;17.10;99.90
20700;DHT22;10511;51.232;9.420;2023-08-24T05:21:28;17.10;99.90
20700;DHT22;10511;51.232;9.420;2023-08-24T05:23:55;17.30;99.90
20700;DHT22;10511;51.232;9.420;2023-08-24T05:26:24;17.40;99.90
20700;DHT22;10511;51.232;9.420;2023-08-24T05:28:52;17.50;99.90
20700;DHT22;10511;51.232;9.420;2023-08-24T05:31:19;17.60;99.90
20700;DHT22;10511;51.232;9.420;2023-08-24T05:33:46;17.60;99.90
20700;DHT22;10511;51.232;9.420;2023-08-24T05:36:13;17.70;99.90
20700;DHT22;10511;51.232;9.420;2023-08-24T05:38:40;17.80;99.90
20700;DHT22;10511;51.232;9.420;2023-08-24T05:41:12;17.80;99.90
20700;DHT22;10511;51.232;9.420;2023-08-24T05:43:40;17.90;99.90
20700;DHT22;10511;51.232;9.420;2023-08-24T05:46:07;17.90;99.90
20700;DHT22;10511;51.232;9.420;2023-08-24T05:48:34;17.90;99.90
20700;DHT22;10511;51.232;9.420;2023-08-24T05:51:01;17.90;99.90
20700;DHT22;10511;51.232;9.420;2023-08-24T05:53:28;18.00;99.90
20700;DHT22;10511;51.232;9.420;2023-08-24T05:55:58;17.90;99.90
20700;DHT22;10511;51.232;9.420;2023-08-24T05:58:25;17.60;99.90
20700;DHT22;10511;51.232;9.420;2023-08-24T06:00:59;17.50;99.90
20700;DHT22;10511;51.232;9.420;2023-08-24T06:03:27;17.50;99.90
20700;DHT22;10511;51.232;9.420;2023-08-24T06:06:00;17.60;99.90
20700;DHT22;10511;51.232;9.420;2023-08-24T06:08:27;17.60;99.90
20700;DHT22;10511;51.232;9.420;2023-08-24T06:10:54;17.60;99.90
20700;DHT22;10511;51.232;9.420;2023-08-24T06:13:21;17.70;99.90
20700;DHT22;10511;51.232;9.420;2023-08-24T06:15:49;17.80;99.90
20700;DHT22;10511;51.232;9.420;2023-08-24T06:18:23;17.90;99.90
20700;DHT22;10511;51.232;9.420;2023-08-24T06:20:50;17.90;99.90
20700;DHT22;10511;51.232;9.420;2023-08-24T06:23:18;17.90;99.90
20700;DHT22;10511;51.232;9.420;2023-08-24T06:25:45;17.90;99.90
20700;DHT22;10511;51.232;9.420;2023-08-24T06:28:12;18.00;99.90
20700;DHT22;10511;51.232;9.420;2023-08-24T06:30:40;18.10;99.90
20700;DHT22;10511;51.232;9.420;2023-08-24T06:33:08;18.10;99.90
20700;DHT22;10511;51.232;9.420;2023-08-24T06:35:37;18.10;99.90
20700;DHT22;10511;51.232;9.420;2023-08-24T06:38:04;17.90;99.90
20700;DHT22;10511;51.232;9.420;2023-08-24T06:40:31;17.80;99.90
20700;DHT22;10511;51.232;9.420;2023-08-24T06:42:58;17.70;99.90
20700;DHT22;10511;51.232;9.420;2023-08-24T06:45:25;17.70;99.90
20700;DHT22;10511;51.232;9.420;2023-08-24T06:47:52;17.80;99.90
20700;DHT22;10511;51.232;9.420;2023-08-24T06:50:20;17.80;99.90
20700;DHT22;10511;51.232;9.420;2023-08-24T06:52:48;17.80;99.90
20700;DHT22;10511;51.232;9.420;2023-08-24T06:55:15;17.90;99.90
20700;DHT22;10511;51.232;9.420;2023-08-24T06:57:42;18.00;99.90
20700;DHT22;10511;51.232;9.420;2023-08-24T07:00:10;18.00;99.90
20700;DHT22;10511;51.232;9.420;2023-08-24T07:02:40;18.10;99.90
20700;DHT22;10511;51.232;9.420;2023-08-24T07:05:08;18.20;99.90
20700;DHT22;10511;51.232;9.420;2023-08-24T07:07:35;18.30;99.90
20700;DHT22;10511;51.232;9.420;2023-08-24T07:10:04;18.30;99.90
20700;DHT22;10511;51.232;9.420;2023-08-24T07:12:31;18.30;99.90
20700;DHT22;10511;51.232;9.420;2023-08-24T07:14:58;18.30;99.90
20700;DHT22;10511;51.232;9.420;2023-08-24T07:17:25;18.40;99.90
20700;DHT22;10511;51.232;9.420;2023-08-24T07:19:52;18.30;99.90
20700;DHT22;10511;51.232;9.420;2023-08-24T07:22:19;18.40;99.90
20700;DHT22;10511;51.232;9.420;2023-08-24T07:24:46;18.30;99.90
20700;DHT22;10511;51.232;9.420;2023-08-24T07:27:19;18.20;99.90
20700;DHT22;10511;51.232;9.420;2023-08-24T07:29:46;18.10;99.90
20700;DHT22;10511;51.232;9.420;2023-08-24T07:32:13;17.90;99.90
20700;DHT22;10511;51.232;9.420;2023-08-24T07:34:40;18.00;99.90
20700;DHT22;10511;51.232;9.420;2023-08-24T07:37:07;17.90;99.90
20700;DHT22;10511;51.232;9.420;2023-08-24T07:39:37;17.80;99.90
20700;DHT22;10511;51.232;9.420;2023-08-24T07:42:09;17.70;99.90
20700;DHT22;10511;51.232;9.420;2023-08-24T07:44:37;17.70;99.90
20700;DHT22;10511;51.232;9.420;2023-08-24T07:47:04;17.70;99.90
20700;DHT22;10511;51.232;9.420;2023-08-24T07:49:31;17.70;99.90
20700;DHT22;10511;51.232;9.420;2023-08-24T07:51:58;17.80;99.90
20700;DHT22;10511;51.232;9.420;2023-08-24T07:54:25;17.90;99.90
20700;DHT22;10511;51.232;9.420;2023-08-24T07:56:51;18.00;99.90
20700;DHT22;10511;51.232;9.420;2023-08-24T07:59:18;18.00;99.90
20700;DHT22;10511;51.232;9.420;2023-08-24T08:01:47;18.20;99.90
20700;DHT22;10511;51.232;9.420;2023-08-24T08:04:14;18.30;99.90
20700;DHT22;10511;51.232;9.420;2023-08-24T08:06:40;18.40;99.90
20700;DHT22;10511;51.232;9.420;2023-08-24T08:09:07;18.60;99.90
20700;DHT22;10511;51.232;9.420;2023-08-24T08:11:34;18.70;99.90
20700;DHT22;10511;51.232;9.420;2023-08-24T08:14:02;18.70;99.90
20700;DHT22;10511;51.232;9.420;2023-08-24T08:16:29;18.80;99.90
20700;DHT22;10511;51.232;9.420;2023-08-24T08:18:57;18.80;99.90
20700;DHT22;10511;51.232;9.420;2023-08-24T08:21:24;18.80;99.90
20700;DHT22;10511;51.232;9.420;2023-08-24T08:23:51;18.80;99.90
20700;DHT22;10511;51.232;9.420;2023-08-24T08:26:19;18.90;99.90
20700;DHT22;10511;51.232;9.420;2023-08-24T08:28:46;19.00;99.90
20700;DHT22;10511;51.232;9.420;2023-08-24T08:31:13;19.10;99.90
20700;DHT22;10511;51.232;9.420;2023-08-24T08:33:40;19.20;99.90
20700;DHT22;10511;51.232;9.420;2023-08-24T08:36:08;19.20;99.90
20700;DHT22;10511;51.232;9.420;2023-08-24T08:38:35;19.20;99.90
20700;DHT22;10511;51.232;9.420;2023-08-24T08:41:03;19.20;99.90
20700;DHT22;10511;51.232;9.420;2023-08-24T08:43:31;19.20;99.90
20700;DHT22;10511;51.232;9.420;2023-08-24T08:45:58;19.20;99.90
20700;DHT22;10511;51.232;9.420;2023-08-24T08:48:26;19.30;99.90
20700;DHT22;10511;51.232;9.420;2023-08-24T08:50:54;19.40;99.90
20700;DHT22;10511;51.232;9.420;2023-08-24T08:53:23;19.40;99.90
20700;DHT22;10511;51.232;9.420;2023-08-24T08:55:52;19.50;99.90
20700;DHT22;10511;51.232;9.420;2023-08-24T08:58:20;19.50;99.90
20700;DHT22;10511;51.232;9.420;2023-08-24T09:00:48;19.50;99.90
20700;DHT22;10511;51.232;9.420;2023-08-24T09:03:18;19.50;99.90
20700;DHT22;10511;51.232;9.420;2023-08-24T09:05:45;19.60;99.90
20700;DHT22;10511;51.232;9.420;2023-08-24T09:08:15;19.70;99.90
20700;DHT22;10511;51.232;9.420;2023-08-24T09:10:44;19.80;99.90
20700;DHT22;10511;51.232;9.420;2023-08-24T09:13:11;19.90;99.90
20700;DHT22;10511;51.232;9.420;2023-08-24T09:15:38;20.00;99.90
20700;DHT22;10511;51.232;9.420;2023-08-24T09:18:05;20.00;99.90
20700;DHT22;10511;51.232;9.420;2023-08-24T09:20:34;20.10;99.90
20700;DHT22;10511;51.232;9.420;2023-08-24T09:23:01;20.10;99.90
20700;DHT22;10511;51.232;9.420;2023-08-24T09:25:28;20.20;99.90
20700;DHT22;10511;51.232;9.420;2023-08-24T09:28:00;20.20;99.90
20700;DHT22;10511;51.232;9.420;2023-08-24T09:30:29;20.40;99.90
20700;DHT22;10511;51.232;9.420;2023-08-24T09:33:01;20.60;99.90
20700;DHT22;10511;51.232;9.420;2023-08-24T09:35:28;20.90;99.90
20700;DHT22;10511;51.232;9.420;2023-08-24T09:37:55;21.20;99.90
20700;DHT22;10511;51.232;9.420;2023-08-24T09:40:24;21.50;99.90
20700;DHT22;10511;51.232;9.420;2023-08-24T09:42:51;21.60;99.90
20700;DHT22;10511;51.232;9.420;2023-08-24T09:45:20;21.90;99.90
20700;DHT22;10511;51.232;9.420;2023-08-24T09:47:50;22.20;99.90
20700;DHT22;10511;51.232;9.420;2023-08-24T09:50:18;22.40;99.90
20700;DHT22;10511;51.232;9.420;2023-08-24T09:52:47;22.50;99.90
20700;DHT22;10511;51.232;9.420;2023-08-24T09:55:20;22.50;99.90
20700;DHT22;10511;51.232;9.420;2023-08-24T09:57:52;22.60;99.90
20700;DHT22;10511;51.232;9.420;2023-08-24T10:00:21;22.80;99.90
20700;DHT22;10511;51.232;9.420;2023-08-24T10:02:51;23.20;99.90
20700;DHT22;10511;51.232;9.420;2023-08-24T10:05:22;23.30;99.90
20700;DHT22;10511;51.232;9.420;2023-08-24T10:07:52;23.40;99.90
20700;DHT22;10511;51.232;9.420;2023-08-24T10:10:20;23.70;99.90
20700;DHT22;10511;51.232;9.420;2023-08-24T10:12:51;23.90;99.90
20700;DHT22;10511;51.232;9.420;2023-08-24T10:15:21;24.10;99.90
20700;DHT22;10511;51.232;9.420;2023-08-24T10:17:49;24.10;99.90
20700;DHT22;10511;51.232;9.420;2023-08-24T10:20:19;24.30;99.90
20700;DHT22;10511;51.232;9.420;2023-08-24T10:22:46;24.40;99.90
20700;DHT22;10511;51.232;9.420;2023-08-24T10:25:16;24.60;99.90
20700;DHT22;10511;51.232;9.420;2023-08-24T10:27:45;24.70;99.90
20700;DHT22;10511;51.232;9.420;2023-08-24T10:30:14;24.80;99.90
20700;DHT22;10511;51.232;9.420;2023-08-24T10:32:44;24.90;99.90
20700;DHT22;10511;51.232;9.420;2023-08-24T10:35:15;24.90;99.90
20700;DHT22;10511;51.232;9.420;2023-08-24T10:37:44;24.80;99.90
20700;DHT22;10511;51.232;9.420;2023-08-24T10:40:13;24.90;99.90
20700;DHT22;10511;51.232;9.420;2023-08-24T10:42:44;24.90;99.90
20700;DHT22;10511;51.232;9.420;2023-08-24T10:45:13;25.00;99.90
20700;DHT22;10511;51.232;9.420;2023-08-24T10:47:45;25.30;99.90
20700;DHT22;10511;51.232;9.420;2023-08-24T10:50:14;25.50;99.90
20700;DHT22;10511;51.232;9.420;2023-08-24T10:52:43;25.70;99.90
20700;DHT22;10511;51.232;9.420;2023-08-24T10:55:24;25.90;99.90
20700;DHT22;10511;51.232;9.420;2023-08-24T10:57:59;26.10;99.90
20700;DHT22;10511;51.232;9.420;2023-08-24T11:00:27;26.20;99.90
20700;DHT22;10511;51.232;9.420;2023-08-24T11:02:56;26.20;99.90
20700;DHT22;10511;51.232;9.420;2023-08-24T11:05:24;26.30;99.90
20700;DHT22;10511;51.232;9.420;2023-08-24T11:07:55;26.50;99.90
20700;DHT22;10511;51.232;9.420;2023-08-24T11:10:23;26.70;99.90
20700;DHT22;10511;51.232;9.420;2023-08-24T11:13:11;26.70;99.90
20700;DHT22;10511;51.232;9.420;2023-08-24T11:15:40;26.80;99.90
20700;DHT22;10511;51.232;9.420;2023-08-24T11:18:23;26.80;99.90
20700;DHT22;10511;51.232;9.420;2023-08-24T11:20:52;27.00;99.90
20700;DHT22;10511;51.232;9.420;2023-08-24T11:23:20;27.20;99.90
20700;DHT22;10511;51.232;9.420;2023-08-24T11:25:48;27.40;99.90
20700;DHT22;10511;51.232;9.420;2023-08-24T11:28:17;27.60;99.90
20700;DHT22;10511;51.232;9.420;2023-08-24T11:30:46;27.60;99.90
20700;DHT22;10511;51.232;9.420;2023-08-24T11:33:14;27.70;99.90
20700;DHT22;10511;51.232;9.420;2023-08-24T11:35:43;27.70;99.90
20700;DHT22;10511;51.232;9.420;2023-08-24T11:38:11;27.70;99.90
20700;DHT22;10511;51.232;9.420;2023-08-24T11:40:39;27.60;99.90
20700;DHT22;10511;51.232;9.420;2023-08-24T11:43:06;27.40;99.90
20700;DHT22;10511;51.232;9.420;2023-08-24T11:45:33;27.40;99.90
20700;DHT22;10511;51.232;9.420;2023-08-24T11:48:02;27.50;99.90
20700;DHT22;10511;51.232;9.420;2023-08-24T11:50:32;27.60;99.90
20700;DHT22;10511;51.232;9.420;2023-08-24T11:53:00;27.50;99.90
20700;DHT22;10511;51.232;9.420;2023-08-24T11:55:28;27.40;99.90
20700;DHT22;10511;51.232;9.420;2023-08-24T11:57:55;27.50;99.90
20700;DHT22;10511;51.232;9.420;2023-08-24T12:00:24;27.50;99.90
20700;DHT22;10511;51.232;9.420;2023-08-24T12:02:52;27.60;99.90
20700;DHT22;10511;51.232;9.420;2023-08-24T12:05:23;27.80;99.90
20700;DHT22;10511;51.232;9.420;2023-08-24T12:07:53;27.70;99.90
20700;DHT22;10511;51.232;9.420;2023-08-24T12:10:21;27.60;99.90
20700;DHT22;10511;51.232;9.420;2023-08-24T12:12:48;27.40;99.90
20700;DHT22;10511;51.232;9.420;2023-08-24T12:15:16;27.50;99.90
20700;DHT22;10511;51.232;9.420;2023-08-24T12:17:43;27.60;99.90
20700;DHT22;10511;51.232;9.420;2023-08-24T12:20:18;27.70;99.90
20700;DHT22;10511;51.232;9.420;2023-08-24T12:22:50;27.80;99.90
20700;DHT22;10511;51.232;9.420;2023-08-24T12:25:21;27.80;99.90
20700;DHT22;10511;51.232;9.420;2023-08-24T12:27:48;27.90;99.90
20700;DHT22;10511;51.232;9.420;2023-08-24T12:30:15;28.00;99.90
20700;DHT22;10511;51.232;9.420;2023-08-24T12:32:44;28.10;99.90
20700;DHT22;10511;51.232;9.420;2023-08-24T12:35:13;28.20;99.90
20700;DHT22;10511;51.232;9.420;2023-08-24T12:37:40;28.30;99.90
20700;DHT22;10511;51.232;9.420;2023-08-24T12:40:07;28.30;99.90
20700;DHT22;10511;51.232;9.420;2023-08-24T12:42:36;28.50;99.90
20700;DHT22;10511;51.232;9.420;2023-08-24T12:45:05;28.60;99.90
20700;DHT22;10511;51.232;9.420;2023-08-24T12:47:32;28.70;99.90
20700;DHT22;10511;51.232;9.420;2023-08-24T12:50:05;28.80;99.90
20700;DHT22;10511;51.232;9.420;2023-08-24T12:52:32;28.90;99.90
20700;DHT22;10511;51.232;9.420;2023-08-24T12:54:59;28.90;99.90
20700;DHT22;10511;51.232;9.420;2023-08-24T12:57:26;28.80;99.90
20700;DHT22;10511;51.232;9.420;2023-08-24T12:59:54;28.80;99.90
20700;DHT22;10511;51.232;9.420;2023-08-24T13:02:21;28.70;99.90
20700;DHT22;10511;51.232;9.420;2023-08-24T13:04:48;28.80;99.90
20700;DHT22;10511;51.232;9.420;2023-08-24T13:07:15;28.70;99.90
20700;DHT22;10511;51.232;9.420;2023-08-24T13:09:42;28.70;99.90
20700;DHT22;10511;51.232;9.420;2023-08-24T13:12:09;28.70;99.90
20700;DHT22;10511;51.232;9.420;2023-08-24T13:14:36;28.50;99.90
20700;DHT22;10511;51.232;9.420;2023-08-24T13:17:04;28.50;99.90
20700;DHT22;10511;51.232;9.420;2023-08-24T13:19:31;28.50;99.90
20700;DHT22;10511;51.232;9.420;2023-08-24T13:21:58;28.40;99.90
20700;DHT22;10511;51.232;9.420;2023-08-24T13:24:25;28.30;99.90
20700;DHT22;10511;51.232;9.420;2023-08-24T13:26:52;28.30;99.90
20700;DHT22;10511;51.232;9.420;2023-08-24T13:29:19;28.30;99.90
20700;DHT22;10511;51.232;9.420;2023-08-24T13:31:46;28.30;99.90
20700;DHT22;10511;51.232;9.420;2023-08-24T13:34:14;28.30;99.90
20700;DHT22;10511;51.232;9.420;2023-08-24T13:36:41;28.30;99.90
20700;DHT22;10511;51.232;9.420;2023-08-24T13:39:08;28.30;99.90
20700;DHT22;10511;51.232;9.420;2023-08-24T13:41:36;28.40;99.90
20700;DHT22;10511;51.232;9.420;2023-08-24T13:44:03;28.40;99.90
20700;DHT22;10511;51.232;9.420;2023-08-24T13:46:30;28.50;99.90
20700;DHT22;10511;51.232;9.420;2023-08-24T13:48:57;28.50;99.90
20700;DHT22;10511;51.232;9.420;2023-08-24T13:51:25;28.60;99.90
20700;DHT22;10511;51.232;9.420;2023-08-24T13:53:52;28.60;99.90
20700;DHT22;10511;51.232;9.420;2023-08-24T13:56:19;28.60;99.90
20700;DHT22;10511;51.232;9.420;2023-08-24T13:58:47;28.70;99.90
20700;DHT22;10511;51.232;9.420;2023-08-24T14:01:14;28.70;99.90
20700;DHT22;10511;51.232;9.420;2023-08-24T14:03:41;28.70;99.90
20700;DHT22;10511;51.232;9.420;2023-08-24T14:06:09;28.60;99.90
20700;DHT22;10511;51.232;9.420;2023-08-24T14:08:37;28.40;99.90
20700;DHT22;10511;51.232;9.420;2023-08-24T14:11:04;28.30;99.90
20700;DHT22;10511;51.232;9.420;2023-08-24T14:13:31;28.30;99.90
20700;DHT22;10511;51.232;9.420;2023-08-24T14:15:58;28.20;99.90
20700;DHT22;10511;51.232;9.420;2023-08-24T14:18:25;28.30;99.90
20700;DHT22;10511;51.232;9.420;2023-08-24T14:20:53;28.30;99.90
20700;DHT22;10511;51.232;9.420;2023-08-24T14:23:20;28.20;99.90
20700;DHT22;10511;51.232;9.420;2023-08-24T14:25:48;28.00;99.90
20700;DHT22;10511;51.232;9.420;2023-08-24T14:28:22;27.90;99.90
20700;DHT22;10511;51.232;9.420;2023-08-24T14:30:49;27.70;99.90
20700;DHT22;10511;51.232;9.420;2023-08-24T14:33:16;27.60;99.90
20700;DHT22;10511;51.232;9.420;2023-08-24T14:35:50;27.50;99.90
20700;DHT22;10511;51.232;9.420;2023-08-24T14:38:17;27.40;99.90
20700;DHT22;10511;51.232;9.420;2023-08-24T14:40:44;27.40;99.90
20700;DHT22;10511;51.232;9.420;2023-08-24T14:43:13;27.40;99.90
20700;DHT22;10511;51.232;9.420;2023-08-24T14:45:39;27.40;99.90
20700;DHT22;10511;51.232;9.420;2023-08-24T14:48:06;27.40;99.90
20700;DHT22;10511;51.232;9.420;2023-08-24T14:50:33;27.40;99.90
20700;DHT22;10511;51.232;9.420;2023-08-24T14:53:00;27.40;99.90
20700;DHT22;10511;51.232;9.420;2023-08-24T14:55:27;27.40;99.90
20700;DHT22;10511;51.232;9.420;2023-08-24T14:57:54;27.40;99.90
20700;DHT22;10511;51.232;9.420;2023-08-24T15:00:24;27.30;99.90
20700;DHT22;10511;51.232;9.420;2023-08-24T15:02:52;27.40;99.90
20700;DHT22;10511;51.232;9.420;2023-08-24T15:05:18;27.40;99.90
20700;DHT22;10511;51.232;9.420;2023-08-24T15:07:45;27.40;99.90
20700;DHT22;10511;51.232;9.420;2023-08-24T15:10:12;27.40;99.90
20700;DHT22;10511;51.232;9.420;2023-08-24T15:12:39;27.40;99.90
20700;DHT22;10511;51.232;9.420;2023-08-24T15:15:07;27.40;99.90
20700;DHT22;10511;51.232;9.420;2023-08-24T15:17:36;27.50;99.90
20700;DHT22;10511;51.232;9.420;2023-08-24T15:20:05;27.60;99.90
20700;DHT22;10511;51.232;9.420;2023-08-24T15:22:32;27.50;99.90
20700;DHT22;10511;51.232;9.420;2023-08-24T15:24:59;27.40;99.90
20700;DHT22;10511;51.232;9.420;2023-08-24T15:27:28;27.40;99.90
20700;DHT22;10511;51.232;9.420;2023-08-24T15:29:55;27.40;99.90
20700;DHT22;10511;51.232;9.420;2023-08-24T15:32:22;27.40;99.90
20700;DHT22;10511;51.232;9.420;2023-08-24T15:34:50;27.40;99.90